Time;durP1;ratioP1;P1;durP2;ratioP2;P2;SDS_P1;SDS_P2;PMS_P1;PMS_P2;Temp;Humidity;BMP_temperature;BMP_pressure;BME280_temperature;BME280_humidity;BME280_pressure;Samples;Min_cycle;Max_cycle;Signal;HPM_P1;HPM_P2
2022/09/18 00:00:06;;;;;;;4.57;1.10;;;12.60;99.90;;;12.65;100.00;100950.81;5227844;28;20045;-73
2022/09/18 00:02:45;;;;;;;4.28;1.58;;;12.60;99.90;;;12.65;100.00;100951.72;5227787;28;20045;-73
2022/09/18 00:05:17;;;;;;;2.92;1.20;;;12.70;99.90;;;12.66;100.00;100961.34;5228037;28;20052;-73
2022/09/18 00:07:50;;;;;;;2.35;1.42;;;12.70;99.90;;;12.66;100.00;100953.50;5227327;28;20045;-73
2022/09/18 00:10:22;;;;;;;3.03;1.00;;;12.60;99.90;;;12.70;100.00;100949.22;5227488;28;20385;-73
2022/09/18 00:12:55;;;;;;;3.60;1.00;;;12.70;99.90;;;12.72;100.00;100943.19;5227937;28;20045;-73
2022/09/18 00:15:27;;;;;;;3.78;1.02;;;12.70;99.90;;;12.71;100.00;100946.66;5227463;28;20045;-73
2022/09/18 00:18:01;;;;;;;3.47;0.98;;;12.70;99.90;;;12.72;100.00;100944.94;5227066;28;20421;-73
2022/09/18 00:20:35;;;;;;;3.80;1.10;;;12.70;99.90;;;12.73;100.00;100941.47;5227447;28;20086;-73
2022/09/18 00:23:07;;;;;;;4.22;1.27;;;12.70;99.90;;;12.72;100.00;100948.44;5227546;28;20116;-73
2022/09/18 00:25:40;;;;;;;4.18;1.00;;;12.70;99.90;;;12.72;100.00;100937.97;5226169;28;20041;-72
2022/09/18 00:28:13;;;;;;;4.45;0.90;;;12.70;99.90;;;12.71;100.00;100940.53;5227044;28;20055;-73
2022/09/18 00:30:46;;;;;;;1.70;0.93;;;12.70;99.90;;;12.66;100.00;100947.38;5225902;28;20440;-73
2022/09/18 00:33:20;;;;;;;1.73;0.82;;;12.60;99.90;;;12.64;100.00;100942.06;5226889;28;20049;-73
2022/09/18 00:35:53;;;;;;;4.15;1.45;;;12.70;99.90;;;12.63;100.00;100945.53;5225388;28;20040;-72
2022/09/18 00:38:25;;;;;;;3.83;1.10;;;12.60;99.90;;;12.61;100.00;100936.78;5225161;28;20048;-73
2022/09/18 00:40:57;;;;;;;4.57;1.13;;;12.60;99.90;;;12.60;100.00;100948.06;5227194;28;20037;-73
2022/09/18 00:43:32;;;;;;;2.08;1.13;;;12.60;99.90;;;12.61;100.00;100928.94;5225693;28;20045;-73
2022/09/18 00:46:08;;;;;;;3.22;1.10;;;12.60;99.90;;;12.59;100.00;100943.69;5226722;28;20052;-74
2022/09/18 00:48:56;;;;;;;5.35;1.45;;;12.60;99.90;;;12.58;100.00;100941.91;5225640;28;20053;-73
2022/09/18 00:51:29;;;;;;;2.30;1.13;;;12.60;99.90;;;12.57;100.00;100937.50;5226753;28;20135;-73
2022/09/18 00:54:16;;;;;;;2.45;0.98;;;12.60;99.90;;;12.57;100.00;100942.75;5225215;28;20072;-73
2022/09/18 00:56:52;;;;;;;4.22;1.10;;;12.60;99.90;;;12.56;100.00;100940.09;5226284;28;20048;-73
2022/09/18 00:59:29;;;;;;;4.18;0.82;;;12.60;99.90;;;12.55;100.00;100944.44;5226628;28;20040;-73
2022/09/18 01:02:02;;;;;;;3.67;1.20;;;12.50;99.90;;;12.53;100.00;100940.91;5226550;28;20041;-72
2022/09/18 01:04:36;;;;;;;2.28;1.40;;;12.50;99.90;;;12.54;100.00;100931.31;5226444;28;20517;-73
2022/09/18 01:07:18;;;;;;;1.70;0.90;;;12.50;99.90;;;12.54;100.00;100932.22;5226171;28;20041;-73
2022/09/18 01:09:58;;;;;;;4.78;1.38;;;12.50;99.90;;;12.54;100.00;100940.06;5226267;28;20570;-72
2022/09/18 01:12:40;;;;;;;3.80;1.00;;;12.50;99.90;;;12.53;100.00;100927.81;5225227;28;20048;-74
2022/09/18 01:15:20;;;;;;;1.73;0.85;;;12.50;99.90;;;12.51;100.00;100937.34;5226433;28;20482;-73
2022/09/18 01:18:02;;;;;;;2.10;1.00;;;12.50;99.90;;;12.50;100.00;100930.34;5225763;28;20115;-73
2022/09/18 01:20:56;;;;;;;3.53;1.17;;;12.50;99.90;;;12.50;100.00;100939.06;5224586;28;20048;-73
2022/09/18 01:24:05;;;;;;;5.65;1.10;;;12.50;99.90;;;12.52;100.00;100939.13;5224842;28;20044;-73
2022/09/18 01:27:00;;;;;;;5.00;1.20;;;12.50;99.90;;;12.52;100.00;100936.53;5225745;28;20095;-73
2022/09/18 01:29:49;;;;;;;3.17;1.10;;;12.50;99.90;;;12.54;100.00;100937.44;5221992;28;20063;-73
2022/09/18 01:32:27;;;;;;;4.65;1.25;;;12.50;99.90;;;12.53;100.00;100946.13;5224600;28;20550;-73
2022/09/18 01:35:06;;;;;;;4.25;1.23;;;12.50;99.90;;;12.52;100.00;100939.13;5224375;28;20060;-73
2022/09/18 01:37:46;;;;;;;3.92;1.15;;;12.50;99.90;;;12.52;100.00;100944.38;5224051;28;20533;-73
2022/09/18 01:40:23;;;;;;;4.45;1.30;;;12.50;99.90;;;12.50;100.00;100946.03;5224435;28;20753;-72
2022/09/18 01:43:01;;;;;;;2.67;1.00;;;12.50;99.90;;;12.51;100.00;100955.63;5224300;28;20041;-72
2022/09/18 01:45:39;;;;;;;3.53;1.00;;;12.50;99.90;;;12.50;100.00;100957.38;5224634;28;20044;-73
2022/09/18 01:48:19;;;;;;;2.20;1.00;;;12.50;99.90;;;12.53;100.00;100953.09;5224290;28;20049;-72
2022/09/18 01:50:58;;;;;;;2.17;1.05;;;12.50;99.90;;;12.53;100.00;100947.88;5224086;28;20049;-72
2022/09/18 01:53:36;;;;;;;2.50;1.00;;;12.50;99.90;;;12.56;100.00;100940.97;5224808;28;20517;-72
2022/09/18 01:56:16;;;;;;;2.88;1.10;;;12.60;99.90;;;12.57;100.00;100947.09;5223640;28;20175;-72
2022/09/18 01:58:51;;;;;;;2.22;1.08;;;12.60;99.90;;;12.55;100.00;100949.66;5224604;28;20041;-73
2022/09/18 02:01:32;;;;;;;4.03;1.10;;;12.60;99.90;;;12.54;100.00;100942.66;5224420;28;20043;-73
2022/09/18 02:04:10;;;;;;;4.13;1.13;;;12.50;99.90;;;12.55;100.00;100944.44;5224300;28;20099;-72
2022/09/18 02:06:49;;;;;;;4.03;1.40;;;12.50;99.90;;;12.58;100.00;100944.50;5224872;28;20099;-72
2022/09/18 02:09:21;;;;;;;4.97;1.13;;;12.60;99.90;;;12.57;100.00;100947.97;5240830;28;20056;-73
2022/09/18 02:11:57;;;;;;;5.95;1.42;;;12.60;99.90;;;12.57;100.00;100945.34;5224129;28;20049;-72
2022/09/18 02:14:34;;;;;;;3.08;0.93;;;12.50;99.90;;;12.58;100.00;100949.75;5223811;28;20079;-72
2022/09/18 02:17:31;;;;;;;3.10;1.02;;;12.50;99.90;;;12.57;100.00;100937.50;5223621;28;20053;-72
2022/09/18 02:20:09;;;;;;;3.55;1.08;;;12.60;99.90;;;12.56;100.00;100940.97;5239511;28;20131;-72
2022/09/18 02:22:44;;;;;;;2.88;0.95;;;12.60;99.90;;;12.54;100.00;100937.44;5224057;28;20560;-72
2022/09/18 02:25:24;;;;;;;3.90;0.95;;;12.60;99.90;;;12.55;100.00;100944.44;5223703;28;20143;-72
2022/09/18 02:27:57;;;;;;;4.80;1.00;;;12.50;99.90;;;12.53;100.00;100930.44;5224694;28;20769;-73
2022/09/18 02:30:30;;;;;;;2.28;1.10;;;12.50;99.90;;;12.49;100.00;100933.81;5224719;28;20136;-73
2022/09/18 02:33:24;;;;;;;3.85;1.13;;;12.50;99.90;;;12.48;100.00;100927.69;5223947;28;20048;-73
2022/09/18 02:36:51;;;;;;;2.55;0.90;;;12.50;99.90;;;12.48;100.00;100932.91;5225174;28;20049;-73
2022/09/18 02:39:39;;;;;;;2.25;0.90;;;12.50;99.90;;;12.51;100.00;100932.09;5225037;28;20072;-72
2022/09/18 02:42:30;;;;;;;2.72;1.17;;;12.50;99.90;;;12.54;100.00;100934.81;5223786;28;20056;-72
2022/09/18 02:45:11;;;;;;;2.17;0.80;;;12.50;99.90;;;12.57;100.00;100940.13;5223421;28;20055;-73
2022/09/18 02:48:03;;;;;;;2.22;0.90;;;12.60;99.90;;;12.58;100.00;100936.66;5223225;28;20049;-72
2022/09/18 02:50:47;;;;;;;2.00;0.93;;;12.60;99.90;;;12.57;100.00;100937.50;5240509;28;20501;-72
2022/09/18 02:53:29;;;;;;;1.30;1.13;;;12.60;99.90;;;12.57;100.00;100945.34;5240386;28;20198;-72
2022/09/18 02:56:05;;;;;;;1.48;1.30;;;12.50;99.90;;;12.58;100.00;100939.28;5222988;28;20044;-73
2022/09/18 02:58:46;;;;;;;2.53;1.30;;;12.60;99.90;;;12.63;100.00;100937.69;5223660;28;20506;-73
2022/09/18 03:01:21;;;;;;;1.75;1.15;;;12.60;99.90;;;12.67;100.00;100930.84;5229582;28;20094;-73
2022/09/18 03:03:53;;;;;;;3.08;1.27;;;12.70;99.90;;;12.69;100.00;100931.75;5230055;28;20045;-73
2022/09/18 03:06:35;;;;;;;1.42;1.13;;;12.70;99.90;;;12.67;100.00;100934.34;5229540;28;20131;-73
2022/09/18 03:09:07;;;;;;;3.55;1.50;;;12.60;99.90;;;12.66;100.00;100931.69;5231488;28;20048;-73
2022/09/18 03:11:41;;;;;;;3.58;1.45;;;12.70;99.90;;;12.67;100.00;100923.88;5230009;28;20045;-72
2022/09/18 03:14:13;;;;;;;1.85;1.10;;;12.60;99.90;;;12.71;100.00;100919.59;5229798;28;20395;-72
2022/09/18 03:16:45;;;;;;;3.33;1.45;;;12.70;99.90;;;12.74;100.00;100919.69;5230993;28;20049;-72
2022/09/18 03:19:19;;;;;;;1.73;1.23;;;12.70;99.90;;;12.75;100.00;100922.34;5230186;28;20525;-72
2022/09/18 03:21:53;;;;;;;3.38;1.27;;;12.70;99.90;;;12.73;100.00;100910.97;5231095;28;20452;-72
2022/09/18 03:24:29;;;;;;;2.83;1.13;;;12.70;99.90;;;12.74;100.00;100904.88;5230066;28;20523;-73
2022/09/18 03:27:03;;;;;;;2.78;1.02;;;12.70;99.90;;;12.79;100.00;100906.75;5229749;28;20141;-73
2022/09/18 03:29:35;;;;;;;4.15;1.42;;;12.70;99.90;;;12.81;100.00;100905.06;5231735;28;20130;-73
2022/09/18 03:32:07;;;;;;;3.25;1.58;;;12.70;99.90;;;12.79;100.00;100906.75;5231404;28;20413;-73
2022/09/18 03:34:47;;;;;;;2.60;1.40;;;12.70;99.90;;;12.76;100.00;100907.53;5230318;28;20456;-72
2022/09/18 03:37:21;;;;;;;3.35;1.60;;;12.70;99.90;;;12.73;100.00;100904.84;5229896;28;20506;-72
2022/09/18 03:39:54;;;;;;;2.88;1.40;;;12.70;99.90;;;12.71;100.00;100901.28;5230275;28;20055;-72
2022/09/18 03:42:27;;;;;;;3.20;1.25;;;12.70;99.90;;;12.75;100.00;100908.38;5231456;28;20124;-72
2022/09/18 03:44:59;;;;;;;2.25;1.25;;;12.70;99.90;;;12.75;100.00;100909.28;5231492;28;20469;-72
2022/09/18 03:47:34;;;;;;;3.22;1.33;;;12.70;99.90;;;12.71;100.00;100912.66;5229639;28;20052;-72
2022/09/18 03:50:07;;;;;;;3.13;1.73;;;12.70;99.90;;;12.67;100.00;100917.75;5229956;28;20055;-72
2022/09/18 03:52:43;;;;;;;1.98;1.33;;;12.60;99.90;;;12.63;100.00;100916.78;5229754;28;20049;-73
2022/09/18 03:55:35;;;;;;;4.57;1.52;;;12.60;99.90;;;12.62;100.00;100920.22;5229720;28;20413;-72
2022/09/18 03:58:33;;;;;;;2.90;1.48;;;12.60;99.90;;;12.56;100.00;100922.66;5214990;28;20080;-72
2022/09/18 04:01:09;;;;;;;3.05;1.13;;;12.50;99.90;;;12.55;100.00;100917.41;5231311;28;20048;-72
2022/09/18 04:04:01;;;;;;;2.65;1.13;;;12.60;99.90;;;12.56;100.00;100914.81;5231061;28;20049;-72
2022/09/18 04:06:33;;;;;;;2.55;1.02;;;12.50;99.90;;;12.56;100.00;100920.06;5230668;28;20055;-71
2022/09/18 04:09:20;;;;;;;3.60;1.42;;;12.50;99.90;;;12.54;100.00;100921.75;5230054;28;20544;-71
2022/09/18 04:11:56;;;;;;;2.42;1.17;;;12.50;99.90;;;12.50;100.00;100918.16;5226844;28;20045;-73
2022/09/18 04:14:28;;;;;;;2.05;1.10;;;12.50;99.90;;;12.47;100.00;100922.41;5226678;28;20041;-72
2022/09/18 04:17:00;;;;;;;1.17;1.08;;;12.50;99.90;;;12.46;100.00;100925.88;5213875;28;20049;-72
2022/09/18 04:19:32;;;;;;;2.38;1.10;;;12.40;99.90;;;12.48;100.00;100926.81;5205632;28;20041;-72
2022/09/18 04:22:04;;;;;;;2.65;1.00;;;12.50;99.90;;;12.47;100.00;100922.41;5207256;28;20100;-72
2022/09/18 04:24:38;;;;;;;3.17;1.20;;;12.50;99.90;;;12.45;100.00;100925.00;5205871;28;20057;-71
2022/09/18 04:27:11;;;;;;;1.52;0.80;;;12.50;99.90;;;12.47;100.00;100925.03;5205383;28;20514;-72
2022/09/18 04:29:43;;;;;;;3.17;1.20;;;12.40;99.90;;;12.48;100.00;100921.56;5205541;28;20052;-72
2022/09/18 04:32:18;;;;;;;3.25;0.95;;;12.40;99.90;;;12.47;100.00;100925.03;5205633;28;20052;-72
2022/09/18 04:34:51;;;;;;;3.42;1.67;;;12.40;99.90;;;12.45;100.00;100926.69;5205606;28;20521;-72
2022/09/18 04:37:25;;;;;;;1.05;0.93;;;12.40;99.90;;;12.42;100.00;100914.44;5205158;28;20061;-72
2022/09/18 04:39:59;;;;;;;0.80;0.80;;;12.40;99.90;;;12.42;100.00;100919.66;5205674;28;20037;-72
2022/09/18 04:42:32;;;;;;;1.40;0.70;;;12.40;99.90;;;12.40;100.00;100917.84;5205499;28;20140;-72
2022/09/18 04:45:09;;;;;;;1.90;0.82;;;12.40;99.90;;;12.38;100.00;100914.28;5205220;28;20049;-72
2022/09/18 04:47:43;;;;;;;1.65;0.82;;;12.40;99.90;;;12.39;100.00;100916.09;5203527;28;20457;-72
2022/09/18 04:50:16;;;;;;;2.03;0.63;;;12.30;99.90;;;12.38;100.00;100912.56;5205326;28;20597;-71
2022/09/18 04:53:08;;;;;;;1.45;0.73;;;12.40;99.90;;;12.39;100.00;100910.84;5206501;28;20172;-72
2022/09/18 04:55:44;;;;;;;4.95;1.27;;;12.40;99.90;;;12.39;100.00;100910.84;5204933;28;20148;-72
2022/09/18 04:58:19;;;;;;;3.35;1.10;;;12.40;99.90;;;12.39;100.00;100905.63;5205323;28;20410;-72
2022/09/18 05:00:55;;;;;;;1.90;0.93;;;12.40;99.90;;;12.42;100.00;100910.94;5205218;28;20115;-73
2022/09/18 05:03:28;;;;;;;2.03;1.08;;;12.40;99.90;;;12.48;100.00;100905.88;5205034;28;20141;-71
2022/09/18 05:06:00;;;;;;;2.53;1.42;;;12.40;99.90;;;12.52;100.00;100909.44;5204635;28;20049;-72
2022/09/18 05:08:33;;;;;;;2.88;1.33;;;12.50;99.90;;;12.55;100.00;100915.66;5205052;28;20046;-72
2022/09/18 05:11:08;;;;;;;1.95;1.10;;;12.50;99.90;;;12.59;100.00;100914.94;5204967;28;20104;-72
2022/09/18 05:13:42;;;;;;;2.72;1.17;;;12.60;99.90;;;12.61;100.00;100913.22;5203606;28;20124;-72
2022/09/18 05:16:19;;;;;;;3.28;1.25;;;12.50;99.90;;;12.62;100.00;100912.38;5203949;28;20045;-72
2022/09/18 05:19:05;;;;;;;5.35;1.70;;;12.60;99.90;;;12.62;100.00;100915.00;5204600;28;20041;-72
2022/09/18 05:21:38;;;;;;;2.92;1.60;;;12.60;99.90;;;12.63;100.00;100906.31;5204507;28;20095;-72
2022/09/18 05:24:12;;;;;;;2.30;1.50;;;12.60;99.90;;;12.65;100.00;100904.66;5203821;28;20053;-71
2022/09/18 05:26:47;;;;;;;2.85;1.60;;;12.60;99.90;;;12.67;100.00;100913.41;5203576;28;20182;-73
2022/09/18 05:29:19;;;;;;;3.90;1.90;;;12.60;99.90;;;12.70;100.00;100903.03;5204376;28;20383;-72
2022/09/18 05:31:53;;;;;;;3.33;1.90;;;12.60;99.90;;;12.70;100.00;100904.75;5204862;28;20533;-73
2022/09/18 05:34:25;;;;;;;4.07;2.10;;;12.60;99.90;;;12.69;100.00;100900.38;5204490;28;20045;-73
2022/09/18 05:36:57;;;;;;;3.38;1.90;;;12.70;99.90;;;12.67;100.00;100902.94;5203892;28;20645;-73
2022/09/18 05:39:30;;;;;;;2.15;1.70;;;12.60;99.90;;;12.67;100.00;100907.28;5204081;28;20045;-72
2022/09/18 05:42:07;;;;;;;5.20;2.05;;;12.60;99.90;;;12.65;100.00;100904.66;5204361;28;20049;-72
2022/09/18 05:44:39;;;;;;;4.85;2.22;;;12.60;99.90;;;12.64;100.00;100908.06;5204111;28;20044;-72
2022/09/18 05:47:19;;;;;;;2.55;1.45;;;12.60;99.90;;;12.63;100.00;100911.53;5203635;28;20072;-77
2022/09/18 05:49:52;;;;;;;2.78;1.23;;;12.60;99.90;;;12.66;100.00;100911.63;5203323;28;20502;-72
2022/09/18 05:52:28;;;;;;;3.08;1.60;;;12.60;99.90;;;12.68;100.00;100915.19;5203618;28;20387;-72
2022/09/18 05:55:00;;;;;;;2.97;1.45;;;12.60;99.90;;;12.71;100.00;100915.28;5193549;22;20054;-69
2022/09/18 05:57:34;;;;;;;4.75;1.70;;;12.70;99.90;;;12.75;100.00;100911.88;5169701;28;20055;-69
2022/09/18 06:00:08;;;;;;;2.20;1.17;;;12.70;99.90;;;12.73;100.00;100910.97;5174067;28;20165;-69
2022/09/18 06:02:57;;;;;;;2.30;1.33;;;12.70;99.90;;;12.74;100.00;100909.22;5153308;28;20055;-68
2022/09/18 06:05:33;;;;;;;1.85;1.35;;;12.70;99.90;;;12.73;100.00;100921.44;5143280;28;20475;-60
2022/09/18 06:08:10;;;;;;;2.40;1.13;;;12.70;99.90;;;12.77;100.00;100901.47;5143503;28;20031;-63
2022/09/18 06:10:42;;;;;;;2.42;1.30;;;12.70;99.90;;;12.76;100.00;100905.81;5141904;28;20069;-60
2022/09/18 06:13:18;;;;;;;1.95;1.30;;;12.70;99.90;;;12.79;100.00;100909.38;5143403;28;20050;-60
2022/09/18 06:15:56;;;;;;;2.28;1.15;;;12.70;99.90;;;12.83;100.00;100914.72;5141547;28;20054;-62
2022/09/18 06:18:53;;;;;;;2.88;1.42;;;12.80;99.90;;;12.84;100.00;100911.25;5142164;28;20181;-62
2022/09/18 06:21:27;;;;;;;2.72;1.20;;;12.80;99.90;;;12.85;100.00;100907.81;5142010;28;20503;-60
2022/09/18 06:23:59;;;;;;;3.08;1.25;;;12.80;99.90;;;12.89;100.00;100924.47;5142069;28;20043;-61
2022/09/18 06:26:40;;;;;;;2.83;1.42;;;12.80;99.90;;;12.88;100.00;100918.34;5141639;28;20395;-62
2022/09/18 06:29:14;;;;;;;4.07;1.50;;;12.80;99.90;;;12.86;100.00;100929.63;5141792;28;20042;-61
2022/09/18 06:31:53;;;;;;;3.03;1.58;;;12.80;99.90;;;12.80;100.00;100932.06;5141918;28;20403;-61
2022/09/18 06:34:27;;;;;;;4.18;1.60;;;12.80;99.90;;;12.79;100.00;100928.56;5142585;28;20118;-60
2022/09/18 06:37:03;;;;;;;3.63;1.45;;;12.70;99.90;;;12.83;100.00;100924.28;5140605;28;20042;-63
2022/09/18 06:39:45;;;;;;;3.83;1.70;;;12.80;99.90;;;12.97;100.00;100928.16;5143083;28;20087;-58
2022/09/18 06:42:26;;;;;;;;;;;12.90;99.90;;;12.96;100.00;100931.63;5143394;28;20350;-57
2022/09/18 06:45:17;;;;;;;2.75;1.30;;;12.90;99.90;;;12.97;100.00;100930.78;5157980;28;19922;-57
2022/09/18 06:47:55;;;;;;;4.13;1.35;;;12.90;99.90;;;12.97;100.00;100922.94;5142029;28;20047;-56
2022/09/18 06:50:28;;;;;;;2.65;1.23;;;12.90;99.90;;;13.01;100.00;100930.03;5158196;28;20500;-58
2022/09/18 06:53:05;;;;;;;4.63;1.35;;;13.00;99.90;;;13.14;100.00;100921.66;5141854;28;20062;-64
2022/09/18 06:55:44;;;;;;;3.38;1.30;;;13.10;99.90;;;13.21;100.00;100930.59;5161118;28;20606;-61
2022/09/18 06:58:17;;;;;;;3.47;1.13;;;13.10;99.90;;;13.28;100.00;100929.91;5162783;28;20098;-62
2022/09/18 07:00:50;;;;;;;6.25;1.48;;;13.20;99.90;;;13.28;100.00;100938.63;5178109;28;20109;-60
2022/09/18 07:03:29;;;;;;;6.45;1.42;;;13.20;99.90;;;13.52;100.00;100934.88;5164296;28;20050;-59
2022/09/18 07:06:20;;;;;;;4.80;1.63;;;13.50;99.90;;;14.10;100.00;100941.53;5125821;28;20054;-60
2022/09/18 07:08:55;;;;;;;7.18;1.50;;;14.00;99.90;;;14.25;100.00;100931.38;5132377;28;20077;-62
2022/09/18 07:12:06;;;;;;;3.45;1.25;;;14.20;99.90;;;14.13;100.00;100931.09;5107445;28;20047;-61
2022/09/18 07:14:46;;;;;;;2.97;1.25;;;14.20;99.90;;;14.04;100.00;100936.13;5129272;28;20042;-61
2022/09/18 07:17:22;;;;;;;2.10;1.10;;;14.10;99.90;;;13.96;100.00;100935.97;5157211;28;20431;-62
2022/09/18 07:19:57;;;;;;;2.13;1.15;;;14.00;99.90;;;13.94;100.00;100935.03;5141626;28;20057;-63
2022/09/18 07:22:41;;;;;;;6.32;1.02;;;13.90;99.90;;;13.98;100.00;100930.75;5141646;28;20177;-60
2022/09/18 07:25:13;;;;;;;5.25;1.10;;;13.90;99.90;;;14.32;100.00;100917.53;5157817;28;20137;-58
2022/09/18 07:27:48;;;;;;;;;;;14.30;99.90;;;14.70;100.00;100930.59;5142015;28;20522;-56
2022/09/18 07:30:22;;;;;;;1.67;0.95;;;14.70;99.90;;;15.06;100.00;100919.94;5157291;28;20313;-58
2022/09/18 07:33:01;;;;;;;2.00;1.10;;;15.00;99.90;;;15.27;100.00;100924.69;5158045;28;20070;-60
2022/09/18 07:35:36;;;;;;;2.38;1.10;;;15.20;99.90;;;15.42;100.00;100924.06;5158260;28;20046;-57
2022/09/18 07:38:10;;;;;;;3.47;1.25;;;15.50;99.90;;;15.57;100.00;100926.06;5141320;28;20575;-62
2022/09/18 07:41:02;;;;;;;2.00;0.80;;;15.70;99.90;;;15.65;100.00;100933.25;5157838;28;20129;-59
2022/09/18 07:43:35;;;;;;;;;;;15.70;99.90;;;15.63;100.00;100934.97;5157915;28;20147;-61
2022/09/18 07:46:08;;;;;;;5.05;0.88;;;15.70;99.90;;;15.68;100.00;100932.41;5158457;28;19961;-60
2022/09/18 07:48:41;;;;;;;3.22;1.05;;;15.80;99.90;;;15.77;100.00;100937.81;5146870;28;20470;-62
2022/09/18 07:51:24;;;;;;;3.00;1.10;;;15.90;99.90;;;15.60;100.00;100934.88;5161300;28;20454;-60
2022/09/18 07:53:58;;;;;;;2.55;0.93;;;15.70;99.90;;;15.37;100.00;100928.34;5143823;28;20047;-60
2022/09/18 08:30:21;;;;;;;2.60;0.70;;;14.40;99.90;;;14.59;100.00;100929.50;5653662;22;20039;-90
2022/09/18 08:32:59;;;;;;;1.75;1.00;;;14.40;99.90;;;14.53;100.00;100922.38;5171203;28;20046;-89
2022/09/18 08:35:32;;;;;;;2.95;0.85;;;14.30;99.90;;;14.49;100.00;100931.06;5164515;28;20053;-89
2022/09/18 08:38:11;;;;;;;1.42;0.90;;;14.30;99.90;;;14.50;100.00;100931.94;5169991;28;20129;-90
2022/09/18 08:41:18;;;;;;;1.98;0.75;;;14.30;99.90;;;14.37;100.00;100939.50;5167753;28;20144;-89
2022/09/18 08:46:43;;;;;;;0.95;0.63;;;14.20;99.90;;;14.25;100.00;100943.59;5143720;28;20047;-54
2022/09/18 08:49:25;;;;;;;2.10;1.00;;;14.10;99.90;;;14.25;100.00;100930.47;5144021;28;20301;-55
2022/09/18 08:52:06;;;;;;;1.65;0.93;;;14.10;99.90;;;14.22;100.00;100931.31;5121678;29;20050;-54
2022/09/18 08:54:47;;;;;;;2.17;1.02;;;14.10;99.90;;;14.28;100.00;100927.91;5107159;29;20035;-53
2022/09/18 08:57:40;;;;;;;5.00;1.23;;;14.10;99.90;;;14.27;100.00;100934.91;5124887;28;20094;-56
2022/09/18 09:00:21;;;;;;;3.17;1.65;;;14.10;99.90;;;14.23;100.00;100925.22;5107914;29;20591;-54
2022/09/18 09:03:27;;;;;;;2.65;1.92;;;14.10;99.90;;;14.26;100.00;100909.53;5108310;29;20058;-59
2022/09/18 09:06:02;;;;;;;;;;;14.10;99.90;;;14.34;100.00;100923.72;5108265;29;20043;-55
2022/09/18 09:09:09;;;;;;;3.22;1.85;;;14.20;99.90;;;14.32;100.00;100932.38;5108264;29;19922;-55
2022/09/18 09:11:50;;;;;;;3.80;1.88;;;14.20;99.90;;;14.25;100.00;100923.50;5123753;29;20131;-53
2022/09/18 09:14:46;;;;;;;4.82;2.22;;;14.20;99.90;;;14.18;100.00;100928.59;5108085;29;20046;-54
2022/09/18 09:17:37;;;;;;;4.00;2.22;;;14.10;99.90;;;14.12;100.00;100930.22;5107904;29;20146;-55
2022/09/18 09:20:22;;;;;;;2.78;2.28;;;14.10;99.90;;;14.16;100.00;100935.53;5107914;29;20416;-53
2022/09/18 09:23:03;;;;;;;4.05;1.83;;;14.10;99.90;;;14.21;100.00;100933.88;5107930;29;20047;-55
2022/09/18 09:25:39;;;;;;;;;;;14.10;99.90;;;14.20;100.00;100932.13;5108013;29;20043;-56
2022/09/18 09:28:38;;;;;;;3.08;1.70;;;14.10;99.90;;;14.20;100.00;100927.75;5124458;29;19926;-57
2022/09/18 09:31:38;;;;;;;2.80;1.45;;;14.10;99.90;;;14.15;100.00;100920.63;5107198;29;20047;-56
2022/09/18 09:34:46;;;;;;;1.92;1.40;;;14.10;99.90;;;14.14;100.00;100922.38;5107485;29;20056;-58
2022/09/18 09:37:48;;;;;;;2.70;1.48;;;14.10;99.90;;;14.12;100.00;100918.84;5120719;29;20066;-57
2022/09/18 09:40:32;;;;;;;2.38;1.45;;;14.00;99.90;;;14.11;100.00;100927.56;5106998;29;20047;-57
2022/09/18 09:43:12;;;;;;;2.50;1.50;;;14.00;99.90;;;14.08;100.00;100932.72;5124523;29;20090;-58
2022/09/18 09:45:48;;;;;;;1.90;1.38;;;14.00;99.90;;;13.99;100.00;100925.53;5107083;29;20408;-57
2022/09/18 09:48:28;;;;;;;2.45;1.20;;;13.90;99.90;;;13.98;100.00;100934.25;5107243;29;20125;-56
2022/09/18 09:51:09;;;;;;;1.48;1.20;;;13.90;99.90;;;13.93;100.00;100930.63;5106922;29;20151;-57
2022/09/18 09:53:43;;;;;;;3.40;1.33;;;13.90;99.90;;;13.88;100.00;100928.75;5106975;29;20065;-57
2022/09/18 09:56:24;;;;;;;4.10;1.50;;;13.80;99.90;;;13.80;100.00;100924.22;5106844;29;20587;-58
2022/09/18 09:59:04;;;;;;;3.10;1.50;;;13.70;99.90;;;13.75;100.00;100914.47;5122972;29;20583;-59
2022/09/18 10:01:45;;;;;;;5.45;1.73;;;13.70;99.90;;;13.75;100.00;100917.09;5122897;29;20512;-55
2022/09/18 10:04:31;;;;;;;4.18;1.63;;;13.70;99.90;;;13.78;100.00;100907.59;5123066;29;20055;-57
2022/09/18 10:07:15;;;;;;;3.30;1.52;;;13.70;99.90;;;13.84;100.00;100905.13;5107020;29;20047;-55
2022/09/18 10:10:01;;;;;;;2.22;1.23;;;13.70;99.90;;;13.92;100.00;100904.41;5123138;28;20404;-57
2022/09/18 10:12:50;;;;;;;2.85;1.50;;;13.80;99.90;;;14.13;100.00;100904.88;5106624;29;20051;-57
2022/09/18 10:15:33;;;;;;;2.55;1.27;;;13.90;99.90;;;14.45;100.00;100899.44;5122710;29;20055;-58
2022/09/18 10:18:16;;;;;;;1.40;1.15;;;14.20;99.90;;;14.72;100.00;100894.78;5106587;29;20456;-58
2022/09/18 10:20:52;;;;;;;2.00;1.42;;;14.40;99.90;;;15.03;100.00;100896.25;5122398;29;20047;-57
2022/09/18 10:23:30;;;;;;;1.98;0.90;;;14.70;99.90;;;15.25;100.00;100904.50;5106525;29;20134;-60
2022/09/18 10:26:06;;;;;;;3.05;1.70;;;15.00;99.90;;;15.35;100.00;100894.19;5106304;29;20047;-58
2022/09/18 10:28:38;;;;;;;2.42;1.30;;;15.10;99.90;;;15.27;100.00;100887.94;5106248;29;20051;-58
2022/09/18 10:31:18;;;;;;;2.22;1.13;;;15.10;99.90;;;15.03;100.00;100898.88;5106226;29;20071;-58
2022/09/18 10:33:55;;;;;;;1.52;0.98;;;14.90;99.90;;;14.84;100.00;100907.25;5106312;29;20129;-57
2022/09/18 10:36:36;;;;;;;3.38;0.98;;;14.80;99.90;;;14.67;100.00;100922.69;5106261;29;20096;-58
2022/09/18 10:39:20;;;;;;;2.22;1.02;;;14.60;99.90;;;14.59;100.00;100913.75;5121834;29;20051;-57
2022/09/18 10:41:59;;;;;;;4.03;1.17;;;14.50;99.90;;;14.51;100.00;100910.09;5122165;29;20133;-57
2022/09/18 10:44:34;;;;;;;2.97;1.30;;;14.40;99.90;;;14.34;100.00;100921.09;5106021;29;20530;-56
2022/09/18 10:47:21;;;;;;;3.40;1.50;;;14.30;99.90;;;14.36;100.00;100908.91;5106553;29;20518;-59
2022/09/18 10:50:00;;;;;;;2.65;1.50;;;14.30;99.90;;;14.47;100.00;100905.63;5106142;29;20051;-56
2022/09/18 10:52:35;;;;;;;1.77;1.00;;;14.40;99.90;;;14.51;100.00;100907.47;5105941;29;20520;-56
2022/09/18 10:55:17;;;;;;;2.00;0.93;;;14.40;99.90;;;14.52;100.00;100898.75;5105964;29;20047;-56
2022/09/18 10:58:13;;;;;;;1.63;0.82;;;14.40;99.90;;;14.51;100.00;100891.72;5106131;29;20472;-60
2022/09/18 11:00:51;;;;;;;2.13;1.13;;;14.40;99.90;;;14.49;100.00;100885.59;5105963;29;20051;-58
2022/09/18 11:03:43;;;;;;;3.10;1.30;;;14.40;99.90;;;14.47;100.00;100890.78;5123244;29;20535;-57
2022/09/18 11:06:23;;;;;;;3.35;1.20;;;14.30;99.90;;;14.44;100.00;100897.69;5105931;29;20044;-57
2022/09/18 11:08:59;;;;;;;3.90;1.20;;;14.30;99.90;;;14.31;100.00;100892.16;5106174;29;20047;-56
2022/09/18 11:11:34;;;;;;;1.98;1.23;;;14.20;99.90;;;14.30;100.00;100897.38;5105890;29;20512;-57
2022/09/18 11:14:24;;;;;;;2.90;1.20;;;14.20;99.90;;;14.31;100.00;100889.56;5105919;29;20416;-56
2022/09/18 11:17:04;;;;;;;3.28;1.35;;;14.20;99.90;;;14.28;100.00;100889.50;5121775;29;20047;-58
2022/09/18 11:19:51;;;;;;;1.73;1.10;;;14.20;99.90;;;14.17;100.00;100885.75;5105800;28;20047;-58
2022/09/18 11:22:34;;;;;;;1.73;1.00;;;14.10;99.90;;;14.30;100.00;100895.66;5109331;29;20394;-57
2022/09/18 11:25:23;;;;;;;3.03;1.40;;;14.10;99.90;;;14.27;100.00;100882.47;5109727;29;20130;-58
2022/09/18 11:27:59;;;;;;;1.30;0.93;;;14.20;99.90;;;14.17;100.00;100884.88;5110153;29;20425;-58
2022/09/18 11:30:39;;;;;;;2.20;1.00;;;14.10;99.90;;;14.04;100.00;100891.59;5109901;29;20051;-58
2022/09/18 11:33:24;;;;;;;4.30;1.00;;;14.00;99.90;;;14.03;100.00;100879.34;5109660;29;20062;-56